sensor_id;sensor_type;location;lat;lon;timestamp;temperature;humidity
14877;DHT22;22152;48.158;17.118;2023-03-16T00:00:52;3.90;72.50
14877;DHT22;22152;48.158;17.118;2023-03-16T00:03:45;3.90;72.60
14877;DHT22;22152;48.158;17.118;2023-03-16T00:06:17;3.90;73.00
14877;DHT22;22152;48.158;17.118;2023-03-16T00:09:10;3.80;73.10
14877;DHT22;22152;48.158;17.118;2023-03-16T00:11:42;3.80;73.10
14877;DHT22;22152;48.158;17.118;2023-03-16T00:14:35;3.80;73.20
14877;DHT22;22152;48.158;17.118;2023-03-16T00:17:21;3.70;74.00
14877;DHT22;22152;48.158;17.118;2023-03-16T00:20:15;3.60;74.60
14877;DHT22;22152;48.158;17.118;2023-03-16T00:22:48;3.60;75.30
14877;DHT22;22152;48.158;17.118;2023-03-16T00:25:41;3.60;75.00
14877;DHT22;22152;48.158;17.118;2023-03-16T00:28:13;3.60;75.10
14877;DHT22;22152;48.158;17.118;2023-03-16T00:31:08;3.60;75.20
14877;DHT22;22152;48.158;17.118;2023-03-16T00:33:42;3.60;75.20
14877;DHT22;22152;48.158;17.118;2023-03-16T00:36:35;3.60;75.40
14877;DHT22;22152;48.158;17.118;2023-03-16T00:39:09;3.60;76.00
14877;DHT22;22152;48.158;17.118;2023-03-16T00:42:02;3.60;75.80
14877;DHT22;22152;48.158;17.118;2023-03-16T00:44:36;3.60;76.00
14877;DHT22;22152;48.158;17.118;2023-03-16T00:47:31;3.50;76.00
14877;DHT22;22152;48.158;17.118;2023-03-16T00:50:05;3.50;76.50
14877;DHT22;22152;48.158;17.118;2023-03-16T00:52:58;3.40;76.80
14877;DHT22;22152;48.158;17.118;2023-03-16T00:55:30;3.50;77.00
14877;DHT22;22152;48.158;17.118;2023-03-16T00:58:24;3.50;76.80
14877;DHT22;22152;48.158;17.118;2023-03-16T01:00:56;3.50;77.10
14877;DHT22;22152;48.158;17.118;2023-03-16T01:03:49;3.50;77.80
14877;DHT22;22152;48.158;17.118;2023-03-16T01:06:22;3.50;77.00
14877;DHT22;22152;48.158;17.118;2023-03-16T01:09:15;3.50;76.80
14877;DHT22;22152;48.158;17.118;2023-03-16T01:11:47;3.50;76.60
14877;DHT22;22152;48.158;17.118;2023-03-16T01:14:41;3.50;76.60
14877;DHT22;22152;48.158;17.118;2023-03-16T01:17:15;3.60;77.00
14877;DHT22;22152;48.158;17.118;2023-03-16T01:20:10;3.60;76.80
14877;DHT22;22152;48.158;17.118;2023-03-16T01:22:51;3.70;76.80
14877;DHT22;22152;48.158;17.118;2023-03-16T01:25:44;3.70;76.50
14877;DHT22;22152;48.158;17.118;2023-03-16T01:28:26;3.70;76.60
14877;DHT22;22152;48.158;17.118;2023-03-16T01:31:20;3.80;76.80
14877;DHT22;22152;48.158;17.118;2023-03-16T01:33:53;3.90;77.00
14877;DHT22;22152;48.158;17.118;2023-03-16T01:36:50;4.00;76.90
14877;DHT22;22152;48.158;17.118;2023-03-16T01:39:32;4.20;77.10
14877;DHT22;22152;48.158;17.118;2023-03-16T01:42:26;4.40;77.40
14877;DHT22;22152;48.158;17.118;2023-03-16T01:44:59;4.60;75.90
14877;DHT22;22152;48.158;17.118;2023-03-16T01:47:53;4.60;74.90
14877;DHT22;22152;48.158;17.118;2023-03-16T01:50:25;4.70;74.60
14877;DHT22;22152;48.158;17.118;2023-03-16T01:53:20;4.80;74.30
14877;DHT22;22152;48.158;17.118;2023-03-16T01:55:55;4.70;74.10
14877;DHT22;22152;48.158;17.118;2023-03-16T01:58:50;4.70;74.10
14877;DHT22;22152;48.158;17.118;2023-03-16T02:01:27;4.80;74.40
14877;DHT22;22152;48.158;17.118;2023-03-16T02:04:57;4.80;73.50
14877;DHT22;22152;48.158;17.118;2023-03-16T02:07:37;4.80;72.90
14877;DHT22;22152;48.158;17.118;2023-03-16T02:10:32;4.70;72.00
14877;DHT22;22152;48.158;17.118;2023-03-16T02:13:06;4.60;71.60
14877;DHT22;22152;48.158;17.118;2023-03-16T02:15:59;4.50;71.30
14877;DHT22;22152;48.158;17.118;2023-03-16T02:18:32;4.40;71.60
14877;DHT22;22152;48.158;17.118;2023-03-16T02:21:36;4.20;72.30
14877;DHT22;22152;48.158;17.118;2023-03-16T02:24:35;4.20;73.20
14877;DHT22;22152;48.158;17.118;2023-03-16T02:30:29;4.40;73.90
14877;DHT22;22152;48.158;17.118;2023-03-16T02:33:22;4.60;73.80
14877;DHT22;22152;48.158;17.118;2023-03-16T02:35:55;4.70;73.60
14877;DHT22;22152;48.158;17.118;2023-03-16T02:38:48;4.80;73.30
14877;DHT22;22152;48.158;17.118;2023-03-16T02:41:20;4.90;72.80
14877;DHT22;22152;48.158;17.118;2023-03-16T02:44:26;4.90;72.30
14877;DHT22;22152;48.158;17.118;2023-03-16T02:47:06;4.90;71.80
14877;DHT22;22152;48.158;17.118;2023-03-16T02:50:03;4.80;71.00
14877;DHT22;22152;48.158;17.118;2023-03-16T02:52:38;4.60;70.70
14877;DHT22;22152;48.158;17.118;2023-03-16T02:55:32;4.50;70.80
14877;DHT22;22152;48.158;17.118;2023-03-16T02:58:04;4.30;70.80
14877;DHT22;22152;48.158;17.118;2023-03-16T03:00:58;4.20;70.70
14877;DHT22;22152;48.158;17.118;2023-03-16T03:03:32;4.00;70.80
14877;DHT22;22152;48.158;17.118;2023-03-16T03:06:25;3.90;71.10
14877;DHT22;22152;48.158;17.118;2023-03-16T03:08:59;3.70;71.40
14877;DHT22;22152;48.158;17.118;2023-03-16T03:11:53;3.60;71.90
14877;DHT22;22152;48.158;17.118;2023-03-16T03:14:25;3.50;72.20
14877;DHT22;22152;48.158;17.118;2023-03-16T03:17:23;3.40;73.10
14877;DHT22;22152;48.158;17.118;2023-03-16T03:20:16;3.30;72.40
14877;DHT22;22152;48.158;17.118;2023-03-16T03:22:56;3.20;72.70
14877;DHT22;22152;48.158;17.118;2023-03-16T03:25:42;3.20;72.70
14877;DHT22;22152;48.158;17.118;2023-03-16T03:28:22;3.20;72.90
14877;DHT22;22152;48.158;17.118;2023-03-16T03:31:19;3.10;72.70
14877;DHT22;22152;48.158;17.118;2023-03-16T03:33:59;3.10;72.80
14877;DHT22;22152;48.158;17.118;2023-03-16T03:36:45;3.00;72.90
14877;DHT22;22152;48.158;17.118;2023-03-16T03:39:24;2.90;73.20
14877;DHT22;22152;48.158;17.118;2023-03-16T03:42:11;2.80;73.50
14877;DHT22;22152;48.158;17.118;2023-03-16T03:44:51;2.80;74.10
14877;DHT22;22152;48.158;17.118;2023-03-16T03:47:37;2.80;74.10
14877;DHT22;22152;48.158;17.118;2023-03-16T03:50:22;2.70;73.90
14877;DHT22;22152;48.158;17.118;2023-03-16T03:53:34;2.70;73.70
14877;DHT22;22152;48.158;17.118;2023-03-16T03:56:21;2.70;74.00
14877;DHT22;22152;48.158;17.118;2023-03-16T03:59:07;2.60;74.00
14877;DHT22;22152;48.158;17.118;2023-03-16T04:02:12;2.60;74.20
14877;DHT22;22152;48.158;17.118;2023-03-16T04:05:00;2.50;74.10
14877;DHT22;22152;48.158;17.118;2023-03-16T04:07:39;2.50;74.30
14877;DHT22;22152;48.158;17.118;2023-03-16T04:10:29;2.40;74.30
14877;DHT22;22152;48.158;17.118;2023-03-16T04:13:09;2.40;74.70
14877;DHT22;22152;48.158;17.118;2023-03-16T04:15:56;2.40;74.60
14877;DHT22;22152;48.158;17.118;2023-03-16T04:18:50;2.40;74.70
14877;DHT22;22152;48.158;17.118;2023-03-16T04:21:43;2.40;74.80
14877;DHT22;22152;48.158;17.118;2023-03-16T04:24:24;2.30;75.20
14877;DHT22;22152;48.158;17.118;2023-03-16T04:27:12;2.20;75.60
14877;DHT22;22152;48.158;17.118;2023-03-16T04:29:52;2.20;75.90
14877;DHT22;22152;48.158;17.118;2023-03-16T04:32:39;2.20;75.50
14877;DHT22;22152;48.158;17.118;2023-03-16T04:35:23;2.20;75.40
14877;DHT22;22152;48.158;17.118;2023-03-16T04:38:09;2.20;75.10
14877;DHT22;22152;48.158;17.118;2023-03-16T04:41:00;2.20;75.60
14877;DHT22;22152;48.158;17.118;2023-03-16T04:43:59;2.30;76.10
14877;DHT22;22152;48.158;17.118;2023-03-16T04:46:40;2.40;76.80
14877;DHT22;22152;48.158;17.118;2023-03-16T04:49:28;2.50;77.10
14877;DHT22;22152;48.158;17.118;2023-03-16T04:52:08;2.70;77.30
14877;DHT22;22152;48.158;17.118;2023-03-16T04:54:54;2.90;77.20
14877;DHT22;22152;48.158;17.118;2023-03-16T04:57:33;3.00;76.90
14877;DHT22;22152;48.158;17.118;2023-03-16T05:00:19;3.20;77.70
14877;DHT22;22152;48.158;17.118;2023-03-16T05:03:08;3.30;77.00
14877;DHT22;22152;48.158;17.118;2023-03-16T05:05:55;3.50;76.80
14877;DHT22;22152;48.158;17.118;2023-03-16T05:08:37;3.70;76.50
14877;DHT22;22152;48.158;17.118;2023-03-16T05:11:23;3.80;75.60
14877;DHT22;22152;48.158;17.118;2023-03-16T05:14:05;3.90;75.30
14877;DHT22;22152;48.158;17.118;2023-03-16T05:17:01;4.00;75.00
14877;DHT22;22152;48.158;17.118;2023-03-16T05:19:49;4.00;74.50
14877;DHT22;22152;48.158;17.118;2023-03-16T05:22:45;4.10;74.00
14877;DHT22;22152;48.158;17.118;2023-03-16T05:25:32;4.10;73.60
14877;DHT22;22152;48.158;17.118;2023-03-16T05:28:20;4.10;73.20
14877;DHT22;22152;48.158;17.118;2023-03-16T05:31:08;4.10;72.50
14877;DHT22;22152;48.158;17.118;2023-03-16T05:33:57;4.00;72.00
14877;DHT22;22152;48.158;17.118;2023-03-16T05:36:37;3.90;71.80
14877;DHT22;22152;48.158;17.118;2023-03-16T05:39:24;3.80;72.10
14877;DHT22;22152;48.158;17.118;2023-03-16T05:42:03;3.70;71.90
14877;DHT22;22152;48.158;17.118;2023-03-16T05:44:57;3.70;72.00
14877;DHT22;22152;48.158;17.118;2023-03-16T05:47:45;3.60;71.80
14877;DHT22;22152;48.158;17.118;2023-03-16T05:50:32;3.50;71.70
14877;DHT22;22152;48.158;17.118;2023-03-16T05:53:11;3.50;72.40
14877;DHT22;22152;48.158;17.118;2023-03-16T05:55:57;3.50;72.50
14877;DHT22;22152;48.158;17.118;2023-03-16T05:58:38;3.50;72.40
14877;DHT22;22152;48.158;17.118;2023-03-16T06:01:27;3.50;72.20
14877;DHT22;22152;48.158;17.118;2023-03-16T06:04:07;3.40;72.30
14877;DHT22;22152;48.158;17.118;2023-03-16T06:06:54;3.40;72.60
14877;DHT22;22152;48.158;17.118;2023-03-16T06:09:34;3.40;72.70
14877;DHT22;22152;48.158;17.118;2023-03-16T06:12:22;3.40;72.80
14877;DHT22;22152;48.158;17.118;2023-03-16T06:15:03;3.40;72.70
14877;DHT22;22152;48.158;17.118;2023-03-16T06:17:51;3.50;73.20
14877;DHT22;22152;48.158;17.118;2023-03-16T06:20:44;3.70;74.00
14877;DHT22;22152;48.158;17.118;2023-03-16T06:23:19;4.00;73.80
14877;DHT22;22152;48.158;17.118;2023-03-16T06:26:13;4.20;73.60
14877;DHT22;22152;48.158;17.118;2023-03-16T06:28:48;4.40;72.50
14877;DHT22;22152;48.158;17.118;2023-03-16T06:31:41;4.70;72.30
14877;DHT22;22152;48.158;17.118;2023-03-16T06:34:13;5.00;71.40
14877;DHT22;22152;48.158;17.118;2023-03-16T06:37:08;5.30;69.50
14877;DHT22;22152;48.158;17.118;2023-03-16T06:39:40;5.40;69.10
14877;DHT22;22152;48.158;17.118;2023-03-16T06:42:34;5.80;69.00
14877;DHT22;22152;48.158;17.118;2023-03-16T06:45:09;6.20;67.20
14877;DHT22;22152;48.158;17.118;2023-03-16T06:48:03;6.40;65.70
14877;DHT22;22152;48.158;17.118;2023-03-16T06:50:36;6.50;64.80
14877;DHT22;22152;48.158;17.118;2023-03-16T06:53:34;6.80;63.90
14877;DHT22;22152;48.158;17.118;2023-03-16T06:56:06;7.10;62.10
14877;DHT22;22152;48.158;17.118;2023-03-16T06:58:59;7.10;61.20
14877;DHT22;22152;48.158;17.118;2023-03-16T07:01:35;7.30;61.10
14877;DHT22;22152;48.158;17.118;2023-03-16T07:04:29;7.50;59.80
14877;DHT22;22152;48.158;17.118;2023-03-16T07:07:01;7.40;58.90
14877;DHT22;22152;48.158;17.118;2023-03-16T07:09:53;7.10;58.90
14877;DHT22;22152;48.158;17.118;2023-03-16T07:12:26;6.80;59.30
14877;DHT22;22152;48.158;17.118;2023-03-16T07:15:20;6.70;59.60
14877;DHT22;22152;48.158;17.118;2023-03-16T07:17:57;6.70;59.90
14877;DHT22;22152;48.158;17.118;2023-03-16T07:20:52;6.80;60.00
14877;DHT22;22152;48.158;17.118;2023-03-16T07:23:25;6.90;59.60
14877;DHT22;22152;48.158;17.118;2023-03-16T07:26:21;6.90;59.20
14877;DHT22;22152;48.158;17.118;2023-03-16T07:28:58;6.70;59.20
14877;DHT22;22152;48.158;17.118;2023-03-16T07:31:50;6.70;59.20
14877;DHT22;22152;48.158;17.118;2023-03-16T07:34:31;6.60;59.40
14877;DHT22;22152;48.158;17.118;2023-03-16T07:37:25;6.60;59.50
14877;DHT22;22152;48.158;17.118;2023-03-16T07:39:59;6.70;59.30
14877;DHT22;22152;48.158;17.118;2023-03-16T07:42:54;6.60;59.00
14877;DHT22;22152;48.158;17.118;2023-03-16T07:45:32;6.50;59.10
14877;DHT22;22152;48.158;17.118;2023-03-16T07:48:26;6.60;59.10
14877;DHT22;22152;48.158;17.118;2023-03-16T07:51:01;6.60;59.10
14877;DHT22;22152;48.158;17.118;2023-03-16T07:53:58;6.70;59.20
14877;DHT22;22152;48.158;17.118;2023-03-16T07:56:33;6.70;59.00
14877;DHT22;22152;48.158;17.118;2023-03-16T07:59:33;6.70;58.60
14877;DHT22;22152;48.158;17.118;2023-03-16T08:02:16;6.60;58.80
14877;DHT22;22152;48.158;17.118;2023-03-16T08:05:10;6.50;58.90
14877;DHT22;22152;48.158;17.118;2023-03-16T08:07:48;6.40;59.20
14877;DHT22;22152;48.158;17.118;2023-03-16T08:10:46;6.40;59.20
14877;DHT22;22152;48.158;17.118;2023-03-16T08:13:23;6.40;59.40
14877;DHT22;22152;48.158;17.118;2023-03-16T08:16:15;6.40;59.10
14877;DHT22;22152;48.158;17.118;2023-03-16T08:18:49;6.40;59.20
14877;DHT22;22152;48.158;17.118;2023-03-16T08:21:42;6.40;59.20
14877;DHT22;22152;48.158;17.118;2023-03-16T08:24:15;6.50;59.20
14877;DHT22;22152;48.158;17.118;2023-03-16T08:27:08;6.50;59.10
14877;DHT22;22152;48.158;17.118;2023-03-16T08:29:51;6.50;59.20
14877;DHT22;22152;48.158;17.118;2023-03-16T08:32:52;6.60;59.10
14877;DHT22;22152;48.158;17.118;2023-03-16T08:35:25;6.80;58.70
14877;DHT22;22152;48.158;17.118;2023-03-16T08:38:17;6.70;58.00
14877;DHT22;22152;48.158;17.118;2023-03-16T08:40:51;6.70;58.30
14877;DHT22;22152;48.158;17.118;2023-03-16T08:43:46;6.80;58.50
14877;DHT22;22152;48.158;17.118;2023-03-16T08:46:18;6.90;58.30
14877;DHT22;22152;48.158;17.118;2023-03-16T08:49:11;7.10;58.20
14877;DHT22;22152;48.158;17.118;2023-03-16T08:51:46;7.20;57.60
14877;DHT22;22152;48.158;17.118;2023-03-16T08:54:39;7.20;57.50
14877;DHT22;22152;48.158;17.118;2023-03-16T08:57:13;7.30;57.50
14877;DHT22;22152;48.158;17.118;2023-03-16T09:00:06;7.40;57.30
14877;DHT22;22152;48.158;17.118;2023-03-16T09:02:46;7.40;56.80
14877;DHT22;22152;48.158;17.118;2023-03-16T09:05:39;7.30;56.70
14877;DHT22;22152;48.158;17.118;2023-03-16T09:08:13;7.40;57.00
14877;DHT22;22152;48.158;17.118;2023-03-16T09:11:07;7.40;56.90
14877;DHT22;22152;48.158;17.118;2023-03-16T09:13:42;7.50;56.60
14877;DHT22;22152;48.158;17.118;2023-03-16T09:16:35;7.60;56.50
14877;DHT22;22152;48.158;17.118;2023-03-16T09:19:09;7.70;56.00
14877;DHT22;22152;48.158;17.118;2023-03-16T09:22:01;7.70;55.80
14877;DHT22;22152;48.158;17.118;2023-03-16T09:24:35;7.80;55.30
14877;DHT22;22152;48.158;17.118;2023-03-16T09:27:27;7.90;55.00
14877;DHT22;22152;48.158;17.118;2023-03-16T09:30:00;8.10;55.30
14877;DHT22;22152;48.158;17.118;2023-03-16T09:32:52;8.30;54.30
14877;DHT22;22152;48.158;17.118;2023-03-16T09:35:25;8.40;53.20
14877;DHT22;22152;48.158;17.118;2023-03-16T09:38:18;8.30;52.70
14877;DHT22;22152;48.158;17.118;2023-03-16T09:40:59;8.20;53.20
14877;DHT22;22152;48.158;17.118;2023-03-16T09:46:55;8.50;52.50
14877;DHT22;22152;48.158;17.118;2023-03-16T09:49:52;8.50;52.30
14877;DHT22;22152;48.158;17.118;2023-03-16T09:52:37;8.50;52.00
14877;DHT22;22152;48.158;17.118;2023-03-16T09:55:37;8.50;51.80
14877;DHT22;22152;48.158;17.118;2023-03-16T09:58:16;8.60;51.60
14877;DHT22;22152;48.158;17.118;2023-03-16T10:02:08;8.80;51.00
14877;DHT22;22152;48.158;17.118;2023-03-16T10:10:48;9.20;48.80
14877;DHT22;22152;48.158;17.118;2023-03-16T10:17:25;9.20;46.80
14877;DHT22;22152;48.158;17.118;2023-03-16T10:20:23;9.00;45.60
14877;DHT22;22152;48.158;17.118;2023-03-16T10:23:23;9.00;45.00
14877;DHT22;22152;48.158;17.118;2023-03-16T10:25:55;9.20;45.20
14877;DHT22;22152;48.158;17.118;2023-03-16T10:28:49;9.50;44.80
14877;DHT22;22152;48.158;17.118;2023-03-16T10:31:22;9.80;43.90
14877;DHT22;22152;48.158;17.118;2023-03-16T10:34:15;9.90;43.70
14877;DHT22;22152;48.158;17.118;2023-03-16T10:36:48;10.00;42.50
14877;DHT22;22152;48.158;17.118;2023-03-16T10:39:41;10.10;42.40
14877;DHT22;22152;48.158;17.118;2023-03-16T10:42:16;10.20;41.50
14877;DHT22;22152;48.158;17.118;2023-03-16T10:45:30;10.30;41.50
14877;DHT22;22152;48.158;17.118;2023-03-16T10:48:17;10.60;41.20
14877;DHT22;22152;48.158;17.118;2023-03-16T10:51:14;10.70;40.60
14877;DHT22;22152;48.158;17.118;2023-03-16T10:53:47;10.50;40.20
14877;DHT22;22152;48.158;17.118;2023-03-16T10:56:39;10.40;40.10
14877;DHT22;22152;48.158;17.118;2023-03-16T10:59:29;10.30;39.70
14877;DHT22;22152;48.158;17.118;2023-03-16T11:02:30;10.30;39.90
14877;DHT22;22152;48.158;17.118;2023-03-16T11:08:24;10.50;40.20
14877;DHT22;22152;48.158;17.118;2023-03-16T11:10:59;10.60;40.00
14877;DHT22;22152;48.158;17.118;2023-03-16T11:14:02;10.60;40.20
14877;DHT22;22152;48.158;17.118;2023-03-16T11:20:18;10.30;39.90
14877;DHT22;22152;48.158;17.118;2023-03-16T11:23:27;10.30;40.10
14877;DHT22;22152;48.158;17.118;2023-03-16T11:26:06;10.40;39.90
14877;DHT22;22152;48.158;17.118;2023-03-16T11:29:24;10.40;39.70
14877;DHT22;22152;48.158;17.118;2023-03-16T11:32:12;10.40;39.40
14877;DHT22;22152;48.158;17.118;2023-03-16T11:35:47;10.50;39.50
14877;DHT22;22152;48.158;17.118;2023-03-16T11:38:33;10.50;39.30
14877;DHT22;22152;48.158;17.118;2023-03-16T11:44:36;10.50;39.40
14877;DHT22;22152;48.158;17.118;2023-03-16T12:10:32;10.30;36.60
14877;DHT22;22152;48.158;17.118;2023-03-16T12:16:27;10.30;35.70
14877;DHT22;22152;48.158;17.118;2023-03-16T12:19:33;10.30;36.00
14877;DHT22;22152;48.158;17.118;2023-03-16T12:22:42;10.30;36.70
14877;DHT22;22152;48.158;17.118;2023-03-16T12:25:20;10.20;37.00
14877;DHT22;22152;48.158;17.118;2023-03-16T12:28:24;10.30;37.30
14877;DHT22;22152;48.158;17.118;2023-03-16T12:31:18;10.30;37.40
14877;DHT22;22152;48.158;17.118;2023-03-16T12:34:22;10.40;37.90
14877;DHT22;22152;48.158;17.118;2023-03-16T12:37:18;10.40;37.20
14877;DHT22;22152;48.158;17.118;2023-03-16T12:40:32;10.40;36.60
14877;DHT22;22152;48.158;17.118;2023-03-16T12:47:04;10.50;35.30
14877;DHT22;22152;48.158;17.118;2023-03-16T12:49:50;10.40;35.60
14877;DHT22;22152;48.158;17.118;2023-03-16T12:52:58;10.40;36.50
14877;DHT22;22152;48.158;17.118;2023-03-16T12:58:24;10.30;35.70
14877;DHT22;22152;48.158;17.118;2023-03-16T13:01:09;10.30;36.10
14877;DHT22;22152;48.158;17.118;2023-03-16T13:04:15;10.40;36.20
14877;DHT22;22152;48.158;17.118;2023-03-16T13:07:07;10.40;35.90
14877;DHT22;22152;48.158;17.118;2023-03-16T13:10:10;10.30;35.60
14877;DHT22;22152;48.158;17.118;2023-03-16T13:12:52;10.30;35.70
14877;DHT22;22152;48.158;17.118;2023-03-16T13:15:38;10.30;36.10
14877;DHT22;22152;48.158;17.118;2023-03-16T13:18:21;10.30;35.90
14877;DHT22;22152;48.158;17.118;2023-03-16T13:21:19;10.40;36.10
14877;DHT22;22152;48.158;17.118;2023-03-16T13:27:32;10.50;35.90
14877;DHT22;22152;48.158;17.118;2023-03-16T13:30:30;10.50;35.30
14877;DHT22;22152;48.158;17.118;2023-03-16T13:33:18;10.50;35.20
14877;DHT22;22152;48.158;17.118;2023-03-16T13:36:06;10.40;34.40
14877;DHT22;22152;48.158;17.118;2023-03-16T13:39:05;10.30;34.70
14877;DHT22;22152;48.158;17.118;2023-03-16T13:42:14;10.30;35.10
14877;DHT22;22152;48.158;17.118;2023-03-16T13:44:56;10.40;35.40
14877;DHT22;22152;48.158;17.118;2023-03-16T13:47:44;10.40;35.30
14877;DHT22;22152;48.158;17.118;2023-03-16T13:50:25;10.40;35.10
14877;DHT22;22152;48.158;17.118;2023-03-16T13:53:22;10.40;35.20
14877;DHT22;22152;48.158;17.118;2023-03-16T13:56:03;10.40;34.80
14877;DHT22;22152;48.158;17.118;2023-03-16T13:58:51;10.40;34.30
14877;DHT22;22152;48.158;17.118;2023-03-16T14:01:31;10.40;34.30
14877;DHT22;22152;48.158;17.118;2023-03-16T14:04:17;10.30;33.30
14877;DHT22;22152;48.158;17.118;2023-03-16T14:07:02;10.20;33.50
14877;DHT22;22152;48.158;17.118;2023-03-16T14:09:49;10.30;33.90
14877;DHT22;22152;48.158;17.118;2023-03-16T14:12:30;10.30;33.90
14877;DHT22;22152;48.158;17.118;2023-03-16T14:15:19;10.30;34.00
14877;DHT22;22152;48.158;17.118;2023-03-16T14:18:35;10.30;33.90
14877;DHT22;22152;48.158;17.118;2023-03-16T14:21:32;10.20;34.30
14877;DHT22;22152;48.158;17.118;2023-03-16T14:24:06;10.20;34.60
14877;DHT22;22152;48.158;17.118;2023-03-16T14:27:18;10.30;34.60
14877;DHT22;22152;48.158;17.118;2023-03-16T14:29:58;10.30;34.60
14877;DHT22;22152;48.158;17.118;2023-03-16T14:35:42;10.20;34.60
14877;DHT22;22152;48.158;17.118;2023-03-16T14:38:33;10.20;34.90
14877;DHT22;22152;48.158;17.118;2023-03-16T14:41:21;10.20;34.80
14877;DHT22;22152;48.158;17.118;2023-03-16T14:44:25;10.30;34.90
14877;DHT22;22152;48.158;17.118;2023-03-16T14:47:14;10.30;34.30
14877;DHT22;22152;48.158;17.118;2023-03-16T14:50:14;10.20;34.30
14877;DHT22;22152;48.158;17.118;2023-03-16T14:52:56;10.20;34.40
14877;DHT22;22152;48.158;17.118;2023-03-16T14:55:42;10.10;34.40
14877;DHT22;22152;48.158;17.118;2023-03-16T14:58:22;10.10;34.70
14877;DHT22;22152;48.158;17.118;2023-03-16T15:01:16;10.10;34.80
14877;DHT22;22152;48.158;17.118;2023-03-16T15:03:55;10.00;34.70
14877;DHT22;22152;48.158;17.118;2023-03-16T15:06:41;10.00;34.80
14877;DHT22;22152;48.158;17.118;2023-03-16T15:09:36;10.00;34.70
14877;DHT22;22152;48.158;17.118;2023-03-16T15:12:23;9.90;35.50
14877;DHT22;22152;48.158;17.118;2023-03-16T15:15:17;9.90;35.30
14877;DHT22;22152;48.158;17.118;2023-03-16T15:18:06;9.90;35.40
14877;DHT22;22152;48.158;17.118;2023-03-16T15:20:53;9.90;35.40
14877;DHT22;22152;48.158;17.118;2023-03-16T15:23:46;9.90;35.10
14877;DHT22;22152;48.158;17.118;2023-03-16T15:26:22;9.90;35.20
14877;DHT22;22152;48.158;17.118;2023-03-16T15:29:16;9.80;35.30
14877;DHT22;22152;48.158;17.118;2023-03-16T15:31:50;9.80;35.60
14877;DHT22;22152;48.158;17.118;2023-03-16T15:34:43;9.70;35.80
14877;DHT22;22152;48.158;17.118;2023-03-16T15:37:24;9.70;35.90
14877;DHT22;22152;48.158;17.118;2023-03-16T15:40:25;9.70;36.50
14877;DHT22;22152;48.158;17.118;2023-03-16T15:43:11;9.70;35.90
14877;DHT22;22152;48.158;17.118;2023-03-16T15:45:59;9.70;35.90
14877;DHT22;22152;48.158;17.118;2023-03-16T15:48:38;9.60;36.50
14877;DHT22;22152;48.158;17.118;2023-03-16T15:51:26;9.60;36.20
14877;DHT22;22152;48.158;17.118;2023-03-16T15:54:07;9.50;36.10
14877;DHT22;22152;48.158;17.118;2023-03-16T15:56:55;9.50;36.40
14877;DHT22;22152;48.158;17.118;2023-03-16T15:59:35;9.40;36.20
14877;DHT22;22152;48.158;17.118;2023-03-16T16:02:29;9.40;36.20
14877;DHT22;22152;48.158;17.118;2023-03-16T16:05:09;9.30;36.20
14877;DHT22;22152;48.158;17.118;2023-03-16T16:07:55;9.30;36.10
14877;DHT22;22152;48.158;17.118;2023-03-16T16:10:35;9.20;36.10
14877;DHT22;22152;48.158;17.118;2023-03-16T16:13:24;9.10;36.30
14877;DHT22;22152;48.158;17.118;2023-03-16T16:16:10;9.00;36.70
14877;DHT22;22152;48.158;17.118;2023-03-16T16:18:57;8.90;36.60
14877;DHT22;22152;48.158;17.118;2023-03-16T16:21:50;8.90;36.80
14877;DHT22;22152;48.158;17.118;2023-03-16T16:24:23;8.90;36.80
14877;DHT22;22152;48.158;17.118;2023-03-16T16:27:16;8.80;36.70
14877;DHT22;22152;48.158;17.118;2023-03-16T16:29:48;8.70;36.70
14877;DHT22;22152;48.158;17.118;2023-03-16T16:32:41;8.60;36.70
14877;DHT22;22152;48.158;17.118;2023-03-16T16:35:15;8.60;37.00
14877;DHT22;22152;48.158;17.118;2023-03-16T16:38:12;8.50;37.20
14877;DHT22;22152;48.158;17.118;2023-03-16T16:40:44;8.40;37.70
14877;DHT22;22152;48.158;17.118;2023-03-16T16:43:45;8.30;37.80
14877;DHT22;22152;48.158;17.118;2023-03-16T16:46:20;8.20;38.50
14877;DHT22;22152;48.158;17.118;2023-03-16T16:49:21;8.10;39.20
14877;DHT22;22152;48.158;17.118;2023-03-16T16:51:54;8.00;40.00
14877;DHT22;22152;48.158;17.118;2023-03-16T16:54:48;7.80;40.50
14877;DHT22;22152;48.158;17.118;2023-03-16T16:57:20;7.60;40.80
14877;DHT22;22152;48.158;17.118;2023-03-16T17:02:53;7.40;41.60
14877;DHT22;22152;48.158;17.118;2023-03-16T17:05:47;7.30;42.00
14877;DHT22;22152;48.158;17.118;2023-03-16T17:08:19;7.10;42.40
14877;DHT22;22152;48.158;17.118;2023-03-16T17:13:52;6.80;43.00
14877;DHT22;22152;48.158;17.118;2023-03-16T17:16:47;6.70;43.20
14877;DHT22;22152;48.158;17.118;2023-03-16T17:19:24;6.60;43.80
14877;DHT22;22152;48.158;17.118;2023-03-16T17:22:23;6.50;44.00
14877;DHT22;22152;48.158;17.118;2023-03-16T17:24:56;6.30;44.80
14877;DHT22;22152;48.158;17.118;2023-03-16T17:27:50;6.20;45.10
14877;DHT22;22152;48.158;17.118;2023-03-16T17:30:27;6.10;45.30
14877;DHT22;22152;48.158;17.118;2023-03-16T17:33:24;6.00;45.20
14877;DHT22;22152;48.158;17.118;2023-03-16T17:35:58;6.00;45.40
14877;DHT22;22152;48.158;17.118;2023-03-16T17:38:51;5.90;45.40
14877;DHT22;22152;48.158;17.118;2023-03-16T17:41:26;5.80;45.80
14877;DHT22;22152;48.158;17.118;2023-03-16T17:44:20;5.70;46.00
14877;DHT22;22152;48.158;17.118;2023-03-16T17:46:52;5.60;46.30
14877;DHT22;22152;48.158;17.118;2023-03-16T17:49:45;5.60;46.30
14877;DHT22;22152;48.158;17.118;2023-03-16T17:52:22;5.50;46.20
14877;DHT22;22152;48.158;17.118;2023-03-16T17:55:16;5.50;46.40
14877;DHT22;22152;48.158;17.118;2023-03-16T17:57:52;5.50;46.40
14877;DHT22;22152;48.158;17.118;2023-03-16T18:00:47;5.50;46.30
14877;DHT22;22152;48.158;17.118;2023-03-16T18:03:21;5.50;46.50
14877;DHT22;22152;48.158;17.118;2023-03-16T18:06:19;5.50;46.90
14877;DHT22;22152;48.158;17.118;2023-03-16T18:08:52;5.40;47.40
14877;DHT22;22152;48.158;17.118;2023-03-16T18:11:50;5.20;47.70
14877;DHT22;22152;48.158;17.118;2023-03-16T18:14:27;5.10;48.30
14877;DHT22;22152;48.158;17.118;2023-03-16T18:17:29;5.10;48.70
14877;DHT22;22152;48.158;17.118;2023-03-16T18:20:03;5.00;49.20
14877;DHT22;22152;48.158;17.118;2023-03-16T18:22:58;4.90;49.10
14877;DHT22;22152;48.158;17.118;2023-03-16T18:25:36;4.90;49.20
14877;DHT22;22152;48.158;17.118;2023-03-16T18:28:30;4.90;49.00
14877;DHT22;22152;48.158;17.118;2023-03-16T18:31:03;4.90;49.20
14877;DHT22;22152;48.158;17.118;2023-03-16T18:33:59;4.80;49.50
14877;DHT22;22152;48.158;17.118;2023-03-16T18:36:36;4.60;49.70
14877;DHT22;22152;48.158;17.118;2023-03-16T18:39:30;4.50;49.60
14877;DHT22;22152;48.158;17.118;2023-03-16T18:42:04;4.50;49.40